sensor_id;sensor_type;location;lat;lon;timestamp;P1;durP1;ratioP1;P2;durP2;ratioP2
13712;SDS011;6928;50.546;7.120;2023-08-12T00:00:10;3.95;;;3.05;;
13712;SDS011;6928;50.546;7.120;2023-08-12T00:02:38;3.90;;;3.33;;
13712;SDS011;6928;50.546;7.120;2023-08-12T00:05:10;4.28;;;3.10;;
13712;SDS011;6928;50.546;7.120;2023-08-12T00:07:38;7.13;;;3.28;;
13712;SDS011;6928;50.546;7.120;2023-08-12T00:10:07;5.07;;;3.42;;
13712;SDS011;6928;50.546;7.120;2023-08-12T00:12:36;4.75;;;3.60;;
13712;SDS011;6928;50.546;7.120;2023-08-12T00:15:05;7.90;;;3.97;;
13712;SDS011;6928;50.546;7.120;2023-08-12T00:17:35;3.15;;;2.92;;
13712;SDS011;6928;50.546;7.120;2023-08-12T00:20:03;3.30;;;3.00;;
13712;SDS011;6928;50.546;7.120;2023-08-12T00:22:32;5.88;;;3.33;;
13712;SDS011;6928;50.546;7.120;2023-08-12T00:24:59;6.88;;;3.60;;
13712;SDS011;6928;50.546;7.120;2023-08-12T00:27:26;4.43;;;2.88;;
13712;SDS011;6928;50.546;7.120;2023-08-12T00:29:53;4.45;;;3.33;;
13712;SDS011;6928;50.546;7.120;2023-08-12T00:32:21;4.22;;;3.17;;
13712;SDS011;6928;50.546;7.120;2023-08-12T00:34:48;4.32;;;3.25;;
13712;SDS011;6928;50.546;7.120;2023-08-12T00:37:15;4.82;;;3.03;;
13712;SDS011;6928;50.546;7.120;2023-08-12T00:39:42;5.13;;;3.00;;
13712;SDS011;6928;50.546;7.120;2023-08-12T00:42:08;4.85;;;3.22;;
13712;SDS011;6928;50.546;7.120;2023-08-12T00:44:35;6.10;;;3.85;;
13712;SDS011;6928;50.546;7.120;2023-08-12T00:47:02;5.30;;;3.28;;
13712;SDS011;6928;50.546;7.120;2023-08-12T00:49:31;4.50;;;3.25;;
13712;SDS011;6928;50.546;7.120;2023-08-12T00:51:59;5.22;;;3.22;;
13712;SDS011;6928;50.546;7.120;2023-08-12T00:54:27;3.92;;;3.25;;
13712;SDS011;6928;50.546;7.120;2023-08-12T00:56:54;4.63;;;3.00;;
13712;SDS011;6928;50.546;7.120;2023-08-12T00:59:21;6.35;;;3.38;;
13712;SDS011;6928;50.546;7.120;2023-08-12T01:01:49;3.47;;;2.83;;
13712;SDS011;6928;50.546;7.120;2023-08-12T01:04:16;4.93;;;3.58;;
13712;SDS011;6928;50.546;7.120;2023-08-12T01:09:53;4.72;;;3.13;;
13712;SDS011;6928;50.546;7.120;2023-08-12T01:12:22;3.20;;;2.78;;
13712;SDS011;6928;50.546;7.120;2023-08-12T01:14:56;2.47;;;2.28;;
13712;SDS011;6928;50.546;7.120;2023-08-12T01:17:30;2.35;;;2.17;;
13712;SDS011;6928;50.546;7.120;2023-08-12T01:19:59;3.42;;;2.53;;
13712;SDS011;6928;50.546;7.120;2023-08-12T01:22:29;3.70;;;2.13;;
13712;SDS011;6928;50.546;7.120;2023-08-12T01:24:59;3.30;;;3.00;;
13712;SDS011;6928;50.546;7.120;2023-08-12T01:27:26;2.45;;;2.25;;
13712;SDS011;6928;50.546;7.120;2023-08-12T01:29:53;2.47;;;1.98;;
13712;SDS011;6928;50.546;7.120;2023-08-12T01:32:22;3.22;;;2.63;;
13712;SDS011;6928;50.546;7.120;2023-08-12T01:34:57;2.55;;;2.35;;
13712;SDS011;6928;50.546;7.120;2023-08-12T01:37:32;1.95;;;1.85;;
13712;SDS011;6928;50.546;7.120;2023-08-12T01:40:03;3.88;;;2.85;;
13712;SDS011;6928;50.546;7.120;2023-08-12T01:42:34;2.65;;;2.15;;
13712;SDS011;6928;50.546;7.120;2023-08-12T01:45:02;2.33;;;1.98;;
13712;SDS011;6928;50.546;7.120;2023-08-12T01:47:29;3.95;;;2.90;;
13712;SDS011;6928;50.546;7.120;2023-08-12T01:49:57;4.10;;;2.40;;
13712;SDS011;6928;50.546;7.120;2023-08-12T01:52:24;3.55;;;2.15;;
13712;SDS011;6928;50.546;7.120;2023-08-12T01:54:51;2.85;;;2.20;;
13712;SDS011;6928;50.546;7.120;2023-08-12T01:57:19;3.30;;;2.17;;
13712;SDS011;6928;50.546;7.120;2023-08-12T01:59:46;2.70;;;2.50;;
13712;SDS011;6928;50.546;7.120;2023-08-12T02:02:13;2.90;;;2.40;;
13712;SDS011;6928;50.546;7.120;2023-08-12T02:04:41;2.92;;;1.98;;
13712;SDS011;6928;50.546;7.120;2023-08-12T02:07:23;3.78;;;2.08;;
13712;SDS011;6928;50.546;7.120;2023-08-12T02:09:51;3.20;;;2.30;;
13712;SDS011;6928;50.546;7.120;2023-08-12T02:12:22;2.30;;;2.10;;
13712;SDS011;6928;50.546;7.120;2023-08-12T02:14:49;2.00;;;1.90;;
13712;SDS011;6928;50.546;7.120;2023-08-12T02:17:16;2.92;;;1.65;;
13712;SDS011;6928;50.546;7.120;2023-08-12T02:19:43;2.60;;;2.25;;
13712;SDS011;6928;50.546;7.120;2023-08-12T02:22:10;3.30;;;2.22;;
13712;SDS011;6928;50.546;7.120;2023-08-12T02:24:36;1.98;;;1.83;;
13712;SDS011;6928;50.546;7.120;2023-08-12T02:27:06;3.17;;;2.15;;
13712;SDS011;6928;50.546;7.120;2023-08-12T02:29:40;2.65;;;2.10;;
13712;SDS011;6928;50.546;7.120;2023-08-12T02:32:07;2.70;;;2.42;;
13712;SDS011;6928;50.546;7.120;2023-08-12T02:34:34;2.60;;;2.33;;
13712;SDS011;6928;50.546;7.120;2023-08-12T02:37:01;4.78;;;2.83;;
13712;SDS011;6928;50.546;7.120;2023-08-12T02:39:28;3.50;;;2.33;;
13712;SDS011;6928;50.546;7.120;2023-08-12T02:41:54;2.50;;;2.20;;
13712;SDS011;6928;50.546;7.120;2023-08-12T02:44:21;2.03;;;1.80;;
13712;SDS011;6928;50.546;7.120;2023-08-12T02:46:49;3.17;;;2.33;;
13712;SDS011;6928;50.546;7.120;2023-08-12T02:49:16;3.08;;;2.63;;
13712;SDS011;6928;50.546;7.120;2023-08-12T02:51:43;2.85;;;2.53;;
13712;SDS011;6928;50.546;7.120;2023-08-12T02:54:10;4.97;;;2.42;;
13712;SDS011;6928;50.546;7.120;2023-08-12T02:56:37;2.50;;;2.08;;
13712;SDS011;6928;50.546;7.120;2023-08-12T02:59:04;2.70;;;2.50;;
13712;SDS011;6928;50.546;7.120;2023-08-12T03:04:52;2.78;;;2.08;;
13712;SDS011;6928;50.546;7.120;2023-08-12T03:07:20;2.05;;;1.95;;
13712;SDS011;6928;50.546;7.120;2023-08-12T03:09:47;3.15;;;2.47;;
13712;SDS011;6928;50.546;7.120;2023-08-12T03:12:57;2.47;;;2.28;;
13712;SDS011;6928;50.546;7.120;2023-08-12T03:15:42;2.22;;;2.13;;
13712;SDS011;6928;50.546;7.120;2023-08-12T03:18:30;3.33;;;2.50;;
13712;SDS011;6928;50.546;7.120;2023-08-12T03:20:56;2.67;;;2.38;;
13712;SDS011;6928;50.546;7.120;2023-08-12T03:23:23;3.78;;;2.45;;
13712;SDS011;6928;50.546;7.120;2023-08-12T03:29:02;2.85;;;2.13;;
13712;SDS011;6928;50.546;7.120;2023-08-12T03:31:30;2.42;;;2.22;;
13712;SDS011;6928;50.546;7.120;2023-08-12T03:34:02;2.88;;;2.40;;
13712;SDS011;6928;50.546;7.120;2023-08-12T03:36:29;3.45;;;2.28;;
13712;SDS011;6928;50.546;7.120;2023-08-12T03:38:56;3.28;;;2.53;;
13712;SDS011;6928;50.546;7.120;2023-08-12T03:41:22;2.72;;;2.53;;
13712;SDS011;6928;50.546;7.120;2023-08-12T03:43:49;2.50;;;2.20;;
13712;SDS011;6928;50.546;7.120;2023-08-12T03:46:16;3.63;;;2.63;;
13712;SDS011;6928;50.546;7.120;2023-08-12T03:48:43;2.30;;;2.05;;
13712;SDS011;6928;50.546;7.120;2023-08-12T03:51:12;2.90;;;2.40;;
13712;SDS011;6928;50.546;7.120;2023-08-12T03:53:42;2.83;;;2.58;;
13712;SDS011;6928;50.546;7.120;2023-08-12T03:56:09;3.15;;;2.42;;
13712;SDS011;6928;50.546;7.120;2023-08-12T03:58:40;2.47;;;2.13;;
13712;SDS011;6928;50.546;7.120;2023-08-12T04:01:06;2.90;;;2.15;;
13712;SDS011;6928;50.546;7.120;2023-08-12T04:03:33;2.70;;;2.30;;
13712;SDS011;6928;50.546;7.120;2023-08-12T04:06:00;5.70;;;2.72;;
13712;SDS011;6928;50.546;7.120;2023-08-12T04:08:29;3.35;;;2.90;;
13712;SDS011;6928;50.546;7.120;2023-08-12T04:10:57;2.78;;;2.58;;
13712;SDS011;6928;50.546;7.120;2023-08-12T04:13:24;3.20;;;2.60;;
13712;SDS011;6928;50.546;7.120;2023-08-12T04:15:51;2.35;;;2.15;;
13712;SDS011;6928;50.546;7.120;2023-08-12T04:18:19;2.60;;;2.38;;
13712;SDS011;6928;50.546;7.120;2023-08-12T04:20:46;3.10;;;2.13;;
13712;SDS011;6928;50.546;7.120;2023-08-12T04:23:35;3.17;;;2.30;;
13712;SDS011;6928;50.546;7.120;2023-08-12T04:26:02;2.90;;;2.65;;
13712;SDS011;6928;50.546;7.120;2023-08-12T04:28:28;2.95;;;2.30;;
13712;SDS011;6928;50.546;7.120;2023-08-12T04:30:55;2.33;;;2.05;;
13712;SDS011;6928;50.546;7.120;2023-08-12T04:33:22;2.53;;;2.33;;
13712;SDS011;6928;50.546;7.120;2023-08-12T04:35:50;2.65;;;2.45;;
13712;SDS011;6928;50.546;7.120;2023-08-12T04:38:19;3.75;;;3.05;;
13712;SDS011;6928;50.546;7.120;2023-08-12T04:40:47;3.42;;;2.22;;
13712;SDS011;6928;50.546;7.120;2023-08-12T04:43:14;3.45;;;2.30;;
13712;SDS011;6928;50.546;7.120;2023-08-12T04:45:44;2.85;;;2.58;;
13712;SDS011;6928;50.546;7.120;2023-08-12T04:48:12;5.65;;;2.80;;
13712;SDS011;6928;50.546;7.120;2023-08-12T04:50:39;2.95;;;1.95;;
13712;SDS011;6928;50.546;7.120;2023-08-12T04:53:06;3.45;;;2.58;;
13712;SDS011;6928;50.546;7.120;2023-08-12T04:55:33;2.03;;;1.83;;
13712;SDS011;6928;50.546;7.120;2023-08-12T04:58:02;1.77;;;1.67;;
13712;SDS011;6928;50.546;7.120;2023-08-12T05:00:29;0.77;;;0.77;;
13712;SDS011;6928;50.546;7.120;2023-08-12T05:02:57;0.90;;;0.90;;
13712;SDS011;6928;50.546;7.120;2023-08-12T05:05:25;1.42;;;1.33;;
13712;SDS011;6928;50.546;7.120;2023-08-12T05:07:52;1.27;;;1.25;;
13712;SDS011;6928;50.546;7.120;2023-08-12T05:10:19;1.38;;;1.27;;
13712;SDS011;6928;50.546;7.120;2023-08-12T05:12:46;1.40;;;1.30;;
13712;SDS011;6928;50.546;7.120;2023-08-12T05:15:16;1.00;;;0.85;;
13712;SDS011;6928;50.546;7.120;2023-08-12T05:17:43;1.08;;;0.95;;
13712;SDS011;6928;50.546;7.120;2023-08-12T05:20:10;0.60;;;0.60;;
13712;SDS011;6928;50.546;7.120;2023-08-12T05:22:37;2.17;;;0.90;;
13712;SDS011;6928;50.546;7.120;2023-08-12T05:25:05;1.48;;;1.00;;
13712;SDS011;6928;50.546;7.120;2023-08-12T05:27:32;0.82;;;0.82;;
13712;SDS011;6928;50.546;7.120;2023-08-12T05:29:59;1.10;;;1.00;;
13712;SDS011;6928;50.546;7.120;2023-08-12T05:32:27;0.80;;;0.73;;
13712;SDS011;6928;50.546;7.120;2023-08-12T05:34:54;1.10;;;1.00;;
13712;SDS011;6928;50.546;7.120;2023-08-12T05:37:21;0.80;;;0.80;;
13712;SDS011;6928;50.546;7.120;2023-08-12T05:39:48;0.82;;;0.82;;
13712;SDS011;6928;50.546;7.120;2023-08-12T05:42:15;1.00;;;0.90;;
13712;SDS011;6928;50.546;7.120;2023-08-12T05:44:41;0.88;;;0.88;;
13712;SDS011;6928;50.546;7.120;2023-08-12T05:47:08;1.05;;;0.95;;
13712;SDS011;6928;50.546;7.120;2023-08-12T05:49:36;2.05;;;0.80;;
13712;SDS011;6928;50.546;7.120;2023-08-12T05:52:03;5.75;;;0.65;;
13712;SDS011;6928;50.546;7.120;2023-08-12T05:54:31;0.90;;;0.90;;
13712;SDS011;6928;50.546;7.120;2023-08-12T05:56:58;0.82;;;0.82;;
13712;SDS011;6928;50.546;7.120;2023-08-12T05:59:25;0.85;;;0.80;;
13712;SDS011;6928;50.546;7.120;2023-08-12T06:01:52;2.50;;;1.25;;
13712;SDS011;6928;50.546;7.120;2023-08-12T06:04:20;0.90;;;0.90;;
13712;SDS011;6928;50.546;7.120;2023-08-12T06:06:48;3.45;;;1.00;;
13712;SDS011;6928;50.546;7.120;2023-08-12T06:09:15;0.50;;;0.50;;
13712;SDS011;6928;50.546;7.120;2023-08-12T06:11:41;1.10;;;1.10;;
13712;SDS011;6928;50.546;7.120;2023-08-12T06:14:08;0.55;;;0.55;;
13712;SDS011;6928;50.546;7.120;2023-08-12T06:16:35;1.05;;;0.60;;
13712;SDS011;6928;50.546;7.120;2023-08-12T06:19:02;0.55;;;0.55;;
13712;SDS011;6928;50.546;7.120;2023-08-12T06:21:29;0.68;;;0.68;;
13712;SDS011;6928;50.546;7.120;2023-08-12T06:23:57;0.50;;;0.50;;
13712;SDS011;6928;50.546;7.120;2023-08-12T06:26:24;0.82;;;0.68;;
13712;SDS011;6928;50.546;7.120;2023-08-12T06:28:50;1.45;;;0.60;;
13712;SDS011;6928;50.546;7.120;2023-08-12T06:31:17;1.13;;;0.60;;
13712;SDS011;6928;50.546;7.120;2023-08-12T06:33:44;0.40;;;0.40;;
13712;SDS011;6928;50.546;7.120;2023-08-12T06:36:11;1.30;;;1.20;;
13712;SDS011;6928;50.546;7.120;2023-08-12T06:38:37;1.52;;;1.08;;
13712;SDS011;6928;50.546;7.120;2023-08-12T06:41:05;0.88;;;0.77;;
13712;SDS011;6928;50.546;7.120;2023-08-12T06:43:32;0.95;;;0.80;;
13712;SDS011;6928;50.546;7.120;2023-08-12T06:46:00;1.27;;;0.73;;
13712;SDS011;6928;50.546;7.120;2023-08-12T06:48:26;0.65;;;0.65;;
13712;SDS011;6928;50.546;7.120;2023-08-12T06:50:53;0.35;;;0.35;;
13712;SDS011;6928;50.546;7.120;2023-08-12T06:53:21;0.98;;;0.60;;
13712;SDS011;6928;50.546;7.120;2023-08-12T06:55:48;2.45;;;0.73;;
13712;SDS011;6928;50.546;7.120;2023-08-12T06:58:16;0.70;;;0.70;;
13712;SDS011;6928;50.546;7.120;2023-08-12T07:00:42;0.85;;;0.75;;
13712;SDS011;6928;50.546;7.120;2023-08-12T07:03:09;0.52;;;0.52;;
13712;SDS011;6928;50.546;7.120;2023-08-12T07:05:36;0.65;;;0.50;;
13712;SDS011;6928;50.546;7.120;2023-08-12T07:08:03;1.00;;;0.90;;
13712;SDS011;6928;50.546;7.120;2023-08-12T07:10:30;1.00;;;0.60;;
13712;SDS011;6928;50.546;7.120;2023-08-12T07:12:57;0.80;;;0.80;;
13712;SDS011;6928;50.546;7.120;2023-08-12T07:15:25;1.35;;;0.73;;
13712;SDS011;6928;50.546;7.120;2023-08-12T07:17:52;0.95;;;0.93;;
13712;SDS011;6928;50.546;7.120;2023-08-12T07:20:19;0.40;;;0.40;;
13712;SDS011;6928;50.546;7.120;2023-08-12T07:22:46;0.47;;;0.47;;
13712;SDS011;6928;50.546;7.120;2023-08-12T07:25:13;2.65;;;0.85;;
13712;SDS011;6928;50.546;7.120;2023-08-12T07:27:40;0.75;;;0.50;;
13712;SDS011;6928;50.546;7.120;2023-08-12T07:30:07;0.70;;;0.70;;
13712;SDS011;6928;50.546;7.120;2023-08-12T07:32:37;3.70;;;0.60;;
13712;SDS011;6928;50.546;7.120;2023-08-12T07:35:04;0.70;;;0.50;;
13712;SDS011;6928;50.546;7.120;2023-08-12T07:37:32;0.70;;;0.70;;
13712;SDS011;6928;50.546;7.120;2023-08-12T07:40:01;17.00;;;6.93;;
13712;SDS011;6928;50.546;7.120;2023-08-12T07:42:29;0.43;;;0.43;;
13712;SDS011;6928;50.546;7.120;2023-08-12T07:44:55;0.50;;;0.50;;
13712;SDS011;6928;50.546;7.120;2023-08-12T07:47:22;0.50;;;0.50;;
13712;SDS011;6928;50.546;7.120;2023-08-12T07:49:54;0.60;;;0.60;;
13712;SDS011;6928;50.546;7.120;2023-08-12T07:52:21;1.00;;;0.60;;
13712;SDS011;6928;50.546;7.120;2023-08-12T07:54:48;0.90;;;0.70;;
13712;SDS011;6928;50.546;7.120;2023-08-12T07:57:14;0.40;;;0.40;;
13712;SDS011;6928;50.546;7.120;2023-08-12T07:59:41;0.73;;;0.73;;
13712;SDS011;6928;50.546;7.120;2023-08-12T08:02:08;1.05;;;1.00;;
13712;SDS011;6928;50.546;7.120;2023-08-12T08:04:35;1.17;;;0.75;;
13712;SDS011;6928;50.546;7.120;2023-08-12T08:07:03;1.17;;;1.08;;
13712;SDS011;6928;50.546;7.120;2023-08-12T08:09:30;1.25;;;0.80;;
13712;SDS011;6928;50.546;7.120;2023-08-12T08:11:58;0.70;;;0.70;;
13712;SDS011;6928;50.546;7.120;2023-08-12T08:14:25;1.30;;;0.98;;
13712;SDS011;6928;50.546;7.120;2023-08-12T08:16:54;5.45;;;1.00;;
13712;SDS011;6928;50.546;7.120;2023-08-12T08:19:20;1.08;;;0.80;;
13712;SDS011;6928;50.546;7.120;2023-08-12T08:21:47;1.48;;;1.05;;
13712;SDS011;6928;50.546;7.120;2023-08-12T08:24:16;2.65;;;1.17;;
13712;SDS011;6928;50.546;7.120;2023-08-12T08:26:43;0.95;;;0.93;;
13712;SDS011;6928;50.546;7.120;2023-08-12T08:29:10;2.55;;;0.90;;
13712;SDS011;6928;50.546;7.120;2023-08-12T08:31:38;0.85;;;0.85;;
13712;SDS011;6928;50.546;7.120;2023-08-12T08:34:05;0.85;;;0.85;;
13712;SDS011;6928;50.546;7.120;2023-08-12T08:36:32;0.75;;;0.75;;
13712;SDS011;6928;50.546;7.120;2023-08-12T08:39:00;0.65;;;0.63;;
13712;SDS011;6928;50.546;7.120;2023-08-12T08:41:29;2.00;;;1.02;;
13712;SDS011;6928;50.546;7.120;2023-08-12T08:43:58;0.80;;;0.80;;
13712;SDS011;6928;50.546;7.120;2023-08-12T08:46:29;0.70;;;0.70;;
13712;SDS011;6928;50.546;7.120;2023-08-12T08:48:57;1.23;;;0.80;;
13712;SDS011;6928;50.546;7.120;2023-08-12T08:51:27;0.63;;;0.63;;
13712;SDS011;6928;50.546;7.120;2023-08-12T08:53:56;0.47;;;0.47;;
13712;SDS011;6928;50.546;7.120;2023-08-12T08:56:23;0.95;;;0.90;;
13712;SDS011;6928;50.546;7.120;2023-08-12T08:58:52;1.15;;;0.85;;
13712;SDS011;6928;50.546;7.120;2023-08-12T09:01:20;0.80;;;0.80;;
13712;SDS011;6928;50.546;7.120;2023-08-12T09:03:48;1.08;;;0.88;;
13712;SDS011;6928;50.546;7.120;2023-08-12T09:06:18;0.47;;;0.47;;
13712;SDS011;6928;50.546;7.120;2023-08-12T09:08:48;0.55;;;0.55;;
13712;SDS011;6928;50.546;7.120;2023-08-12T09:11:17;2.88;;;0.75;;
13712;SDS011;6928;50.546;7.120;2023-08-12T09:13:46;1.17;;;0.73;;
13712;SDS011;6928;50.546;7.120;2023-08-12T09:16:15;0.82;;;0.82;;
13712;SDS011;6928;50.546;7.120;2023-08-12T09:18:42;1.00;;;0.88;;
13712;SDS011;6928;50.546;7.120;2023-08-12T09:21:09;0.50;;;0.50;;
13712;SDS011;6928;50.546;7.120;2023-08-12T09:23:37;0.50;;;0.50;;
13712;SDS011;6928;50.546;7.120;2023-08-12T09:26:15;0.43;;;0.43;;
13712;SDS011;6928;50.546;7.120;2023-08-12T09:28:44;0.82;;;0.60;;
13712;SDS011;6928;50.546;7.120;2023-08-12T09:31:21;0.93;;;0.52;;
13712;SDS011;6928;50.546;7.120;2023-08-12T09:33:51;0.60;;;0.60;;
13712;SDS011;6928;50.546;7.120;2023-08-12T09:36:20;0.63;;;0.63;;
13712;SDS011;6928;50.546;7.120;2023-08-12T09:38:49;0.80;;;0.47;;
13712;SDS011;6928;50.546;7.120;2023-08-12T09:41:17;0.52;;;0.52;;
13712;SDS011;6928;50.546;7.120;2023-08-12T09:43:44;2.15;;;0.55;;
13712;SDS011;6928;50.546;7.120;2023-08-12T09:46:12;1.05;;;0.57;;
13712;SDS011;6928;50.546;7.120;2023-08-12T09:48:41;0.55;;;0.55;;
13712;SDS011;6928;50.546;7.120;2023-08-12T09:51:08;0.60;;;0.60;;
13712;SDS011;6928;50.546;7.120;2023-08-12T09:53:35;1.33;;;1.13;;
13712;SDS011;6928;50.546;7.120;2023-08-12T09:56:05;0.73;;;0.60;;
13712;SDS011;6928;50.546;7.120;2023-08-12T09:58:35;0.70;;;0.70;;
13712;SDS011;6928;50.546;7.120;2023-08-12T10:01:03;0.75;;;0.50;;
13712;SDS011;6928;50.546;7.120;2023-08-12T10:03:31;2.55;;;1.05;;
13712;SDS011;6928;50.546;7.120;2023-08-12T10:06:01;0.80;;;0.80;;
13712;SDS011;6928;50.546;7.120;2023-08-12T10:08:29;0.90;;;0.90;;
13712;SDS011;6928;50.546;7.120;2023-08-12T10:10:56;0.68;;;0.68;;
13712;SDS011;6928;50.546;7.120;2023-08-12T10:13:23;0.70;;;0.70;;
13712;SDS011;6928;50.546;7.120;2023-08-12T10:15:50;0.40;;;0.40;;
13712;SDS011;6928;50.546;7.120;2023-08-12T10:18:18;1.13;;;0.73;;
13712;SDS011;6928;50.546;7.120;2023-08-12T10:20:46;0.50;;;0.50;;
13712;SDS011;6928;50.546;7.120;2023-08-12T10:23:15;0.50;;;0.45;;
13712;SDS011;6928;50.546;7.120;2023-08-12T10:25:43;1.02;;;0.50;;
13712;SDS011;6928;50.546;7.120;2023-08-12T10:28:11;2.22;;;0.80;;
13712;SDS011;6928;50.546;7.120;2023-08-12T10:30:39;1.35;;;0.90;;
13712;SDS011;6928;50.546;7.120;2023-08-12T10:33:08;0.95;;;0.57;;
13712;SDS011;6928;50.546;7.120;2023-08-12T10:35:41;0.70;;;0.70;;
13712;SDS011;6928;50.546;7.120;2023-08-12T10:38:10;4.10;;;1.00;;
13712;SDS011;6928;50.546;7.120;2023-08-12T10:40:41;1.13;;;0.70;;
13712;SDS011;6928;50.546;7.120;2023-08-12T10:43:08;1.42;;;0.80;;
13712;SDS011;6928;50.546;7.120;2023-08-12T10:45:42;0.82;;;0.80;;
13712;SDS011;6928;50.546;7.120;2023-08-12T10:48:19;0.52;;;0.52;;
13712;SDS011;6928;50.546;7.120;2023-08-12T10:50:51;0.47;;;0.47;;
13712;SDS011;6928;50.546;7.120;2023-08-12T10:53:20;1.45;;;0.98;;
13712;SDS011;6928;50.546;7.120;2023-08-12T10:55:56;0.20;;;0.20;;
13712;SDS011;6928;50.546;7.120;2023-08-12T10:58:26;0.47;;;0.43;;
13712;SDS011;6928;50.546;7.120;2023-08-12T11:00:54;0.30;;;0.30;;
13712;SDS011;6928;50.546;7.120;2023-08-12T11:03:22;0.80;;;0.80;;
13712;SDS011;6928;50.546;7.120;2023-08-12T11:05:49;0.50;;;0.43;;
13712;SDS011;6928;50.546;7.120;2023-08-12T11:08:20;0.30;;;0.30;;
13712;SDS011;6928;50.546;7.120;2023-08-12T11:10:52;0.30;;;0.30;;
13712;SDS011;6928;50.546;7.120;2023-08-12T11:13:23;0.30;;;0.30;;
13712;SDS011;6928;50.546;7.120;2023-08-12T11:16:04;0.30;;;0.30;;
13712;SDS011;6928;50.546;7.120;2023-08-12T11:18:33;0.20;;;0.20;;
13712;SDS011;6928;50.546;7.120;2023-08-12T11:21:00;2.15;;;0.50;;
13712;SDS011;6928;50.546;7.120;2023-08-12T11:23:28;0.40;;;0.40;;
13712;SDS011;6928;50.546;7.120;2023-08-12T11:25:56;0.60;;;0.60;;
13712;SDS011;6928;50.546;7.120;2023-08-12T11:28:25;0.40;;;0.40;;
13712;SDS011;6928;50.546;7.120;2023-08-12T11:30:53;0.30;;;0.30;;
13712;SDS011;6928;50.546;7.120;2023-08-12T11:33:21;0.52;;;0.50;;
13712;SDS011;6928;50.546;7.120;2023-08-12T11:35:50;2.38;;;0.68;;
13712;SDS011;6928;50.546;7.120;2023-08-12T11:38:17;0.40;;;0.40;;
13712;SDS011;6928;50.546;7.120;2023-08-12T11:40:44;0.40;;;0.40;;
13712;SDS011;6928;50.546;7.120;2023-08-12T11:43:11;0.40;;;0.40;;
13712;SDS011;6928;50.546;7.120;2023-08-12T11:45:41;0.50;;;0.50;;
13712;SDS011;6928;50.546;7.120;2023-08-12T11:48:09;0.40;;;0.40;;
13712;SDS011;6928;50.546;7.120;2023-08-12T11:50:36;1.73;;;0.45;;
13712;SDS011;6928;50.546;7.120;2023-08-12T11:53:03;0.30;;;0.30;;
13712;SDS011;6928;50.546;7.120;2023-08-12T11:55:30;0.47;;;0.47;;
13712;SDS011;6928;50.546;7.120;2023-08-12T11:57:57;0.28;;;0.28;;
13712;SDS011;6928;50.546;7.120;2023-08-12T12:00:25;0.40;;;0.40;;
13712;SDS011;6928;50.546;7.120;2023-08-12T12:02:54;0.30;;;0.30;;
13712;SDS011;6928;50.546;7.120;2023-08-12T12:05:23;0.30;;;0.30;;
13712;SDS011;6928;50.546;7.120;2023-08-12T12:07:54;0.52;;;0.50;;
13712;SDS011;6928;50.546;7.120;2023-08-12T12:10:26;0.35;;;0.35;;
13712;SDS011;6928;50.546;7.120;2023-08-12T12:12:55;0.47;;;0.47;;
13712;SDS011;6928;50.546;7.120;2023-08-12T12:15:24;0.43;;;0.43;;
13712;SDS011;6928;50.546;7.120;2023-08-12T12:18:02;0.40;;;0.40;;
13712;SDS011;6928;50.546;7.120;2023-08-12T12:20:35;0.57;;;0.57;;
13712;SDS011;6928;50.546;7.120;2023-08-12T12:23:05;0.50;;;0.50;;
13712;SDS011;6928;50.546;7.120;2023-08-12T12:25:32;0.30;;;0.30;;
13712;SDS011;6928;50.546;7.120;2023-08-12T12:28:00;0.30;;;0.30;;
13712;SDS011;6928;50.546;7.120;2023-08-12T12:30:26;0.45;;;0.32;;
13712;SDS011;6928;50.546;7.120;2023-08-12T12:32:53;0.30;;;0.30;;
13712;SDS011;6928;50.546;7.120;2023-08-12T12:35:21;0.77;;;0.40;;
13712;SDS011;6928;50.546;7.120;2023-08-12T12:37:49;0.65;;;0.65;;
13712;SDS011;6928;50.546;7.120;2023-08-12T12:40:15;0.82;;;0.43;;
13712;SDS011;6928;50.546;7.120;2023-08-12T12:42:43;0.32;;;0.32;;
13712;SDS011;6928;50.546;7.120;2023-08-12T12:45:10;2.55;;;0.47;;
13712;SDS011;6928;50.546;7.120;2023-08-12T12:47:36;0.32;;;0.32;;
13712;SDS011;6928;50.546;7.120;2023-08-12T12:50:04;1.10;;;0.50;;
13712;SDS011;6928;50.546;7.120;2023-08-12T12:52:33;0.20;;;0.20;;
13712;SDS011;6928;50.546;7.120;2023-08-12T12:55:00;0.52;;;0.30;;
13712;SDS011;6928;50.546;7.120;2023-08-12T12:57:29;0.40;;;0.40;;
13712;SDS011;6928;50.546;7.120;2023-08-12T12:59:56;0.45;;;0.40;;
13712;SDS011;6928;50.546;7.120;2023-08-12T13:02:24;0.45;;;0.45;;
13712;SDS011;6928;50.546;7.120;2023-08-12T13:04:55;0.22;;;0.22;;
13712;SDS011;6928;50.546;7.120;2023-08-12T13:07:25;0.30;;;0.30;;
13712;SDS011;6928;50.546;7.120;2023-08-12T13:09:53;1.13;;;0.50;;
13712;SDS011;6928;50.546;7.120;2023-08-12T13:12:20;0.40;;;0.40;;
13712;SDS011;6928;50.546;7.120;2023-08-12T13:14:47;0.98;;;0.40;;
13712;SDS011;6928;50.546;7.120;2023-08-12T13:17:14;0.40;;;0.40;;
13712;SDS011;6928;50.546;7.120;2023-08-12T13:19:41;0.38;;;0.38;;
13712;SDS011;6928;50.546;7.120;2023-08-12T13:22:08;3.65;;;0.30;;
13712;SDS011;6928;50.546;7.120;2023-08-12T13:24:35;1.65;;;0.30;;
13712;SDS011;6928;50.546;7.120;2023-08-12T13:27:04;0.40;;;0.40;;
13712;SDS011;6928;50.546;7.120;2023-08-12T13:29:31;4.72;;;0.30;;
13712;SDS011;6928;50.546;7.120;2023-08-12T13:31:58;0.40;;;0.22;;
13712;SDS011;6928;50.546;7.120;2023-08-12T13:34:25;0.30;;;0.30;;
13712;SDS011;6928;50.546;7.120;2023-08-12T13:36:51;0.20;;;0.20;;
13712;SDS011;6928;50.546;7.120;2023-08-12T13:39:18;0.20;;;0.20;;
13712;SDS011;6928;50.546;7.120;2023-08-12T13:41:45;0.25;;;0.25;;
13712;SDS011;6928;50.546;7.120;2023-08-12T13:44:14;0.20;;;0.20;;
13712;SDS011;6928;50.546;7.120;2023-08-12T13:46:42;0.28;;;0.28;;
13712;SDS011;6928;50.546;7.120;2023-08-12T13:49:08;0.32;;;0.32;;
13712;SDS011;6928;50.546;7.120;2023-08-12T13:51:36;0.17;;;0.17;;
13712;SDS011;6928;50.546;7.120;2023-08-12T13:54:04;0.20;;;0.20;;
13712;SDS011;6928;50.546;7.120;2023-08-12T13:56:31;1.45;;;0.20;;
13712;SDS011;6928;50.546;7.120;2023-08-12T13:58:57;0.20;;;0.20;;
13712;SDS011;6928;50.546;7.120;2023-08-12T14:01:25;0.10;;;0.10;;
13712;SDS011;6928;50.546;7.120;2023-08-12T14:03:52;0.20;;;0.20;;
13712;SDS011;6928;50.546;7.120;2023-08-12T14:06:19;0.20;;;0.20;;
13712;SDS011;6928;50.546;7.120;2023-08-12T14:08:46;0.20;;;0.20;;
13712;SDS011;6928;50.546;7.120;2023-08-12T14:11:13;0.30;;;0.30;;
13712;SDS011;6928;50.546;7.120;2023-08-12T14:13:39;0.60;;;0.30;;
13712;SDS011;6928;50.546;7.120;2023-08-12T14:16:06;0.20;;;0.20;;
13712;SDS011;6928;50.546;7.120;2023-08-12T14:18:34;0.28;;;0.28;;
13712;SDS011;6928;50.546;7.120;2023-08-12T14:21:01;0.20;;;0.20;;
13712;SDS011;6928;50.546;7.120;2023-08-12T14:23:27;0.13;;;0.13;;
13712;SDS011;6928;50.546;7.120;2023-08-12T14:25:54;0.77;;;0.40;;
13712;SDS011;6928;50.546;7.120;2023-08-12T14:28:21;0.30;;;0.30;;
13712;SDS011;6928;50.546;7.120;2023-08-12T14:30:49;0.20;;;0.17;;
13712;SDS011;6928;50.546;7.120;2023-08-12T14:33:16;0.20;;;0.20;;
13712;SDS011;6928;50.546;7.120;2023-08-12T14:35:44;0.10;;;0.10;;
13712;SDS011;6928;50.546;7.120;2023-08-12T14:38:10;0.25;;;0.20;;
13712;SDS011;6928;50.546;7.120;2023-08-12T14:40:37;0.20;;;0.20;;
13712;SDS011;6928;50.546;7.120;2023-08-12T14:43:04;0.20;;;0.20;;
13712;SDS011;6928;50.546;7.120;2023-08-12T14:45:31;0.20;;;0.20;;
13712;SDS011;6928;50.546;7.120;2023-08-12T14:47:57;0.43;;;0.25;;
13712;SDS011;6928;50.546;7.120;2023-08-12T14:50:24;0.20;;;0.20;;
13712;SDS011;6928;50.546;7.120;2023-08-12T14:52:52;0.20;;;0.20;;
13712;SDS011;6928;50.546;7.120;2023-08-12T14:55:19;0.20;;;0.20;;
13712;SDS011;6928;50.546;7.120;2023-08-12T14:57:46;0.20;;;0.20;;
13712;SDS011;6928;50.546;7.120;2023-08-12T15:00:13;0.20;;;0.20;;
13712;SDS011;6928;50.546;7.120;2023-08-12T15:02:40;0.30;;;0.30;;
13712;SDS011;6928;50.546;7.120;2023-08-12T15:05:08;0.20;;;0.20;;
13712;SDS011;6928;50.546;7.120;2023-08-12T15:07:34;0.13;;;0.13;;
13712;SDS011;6928;50.546;7.120;2023-08-12T15:10:05;0.30;;;0.30;;
13712;SDS011;6928;50.546;7.120;2023-08-12T15:12:33;0.10;;;0.10;;
13712;SDS011;6928;50.546;7.120;2023-08-12T15:15:08;0.10;;;0.10;;